Fairfield, NE (68938)

15:43 CDT le 26 septembre 2016 (GMT -0500)
Spring Ranch | | Change Station

Alt. 1781 ft 40.42 °N, 98.26 °W | Updated 14 seconds ago

Clear
Ciel dégagé
75.5 ° F
Paraît 77 ° F
N
17.3
Vent Variable Vent de NO
Gusts 17.3 mph

Aujourd'hui
Haut(e) -- | Bas -- ° F
--% Risque de précip.
Hier
Haut(e) -- | Bas -- ° F
Precip. -- pouce
Pression 30.19 pouce
Visibilité 10.0 Miles terrestres
Nuages Ciel dégagé
indice de chaleur 77 ° F
Point de rosée 40 ° F
Humidité 28%
Précipitations 0.00 pouce
Profondeur de la couche neigeuse Non disponible.
7:24 AM 7:21 PM
Lune descendante, 16% visible
METAR KHSI 261953Z AUTO 29012G20KT 10SM CLR 24/02 A3020 RMK AO2 SLP222 T02390017
Pression 30.19 pouce
Visibilité 10.0 Miles terrestres
Nuages Ciel dégagé
indice de chaleur 77 ° F
Point de rosée 40 ° F
Humidité 28%
Précipitations 0.00 pouce
Profondeur de la couche neigeuse Non disponible.
7:24 AM 7:21 PM
Lune descendante, 16% visible
METAR KHSI 261953Z AUTO 29012G20KT 10SM CLR 24/02 A3020 RMK AO2 SLP222 T02390017

10-Day Weather Forecast

Almanac

Astronomie

Sep. 26, 2016 Lever Coucher
Temps réel
Crépuscule civil
Crépuscule nautique
Crépuscule astronomique
Lune
Durée de lumière visible
Longueur du jour
Tomorrow will be .
, % of the Moon is Illuminated

Extrêmes aujourd'hui

State Highs State Lows

Community

WunderPhotos

Upload Photos

1,941,963 Photos téléchargées !

WunderBlog® & News

Nearby

Qualité de l'air

  Qualité de l'air Indice de la qualité de l'air Polluant
Not available.

Épaisseur de neige

Station Depth Altitude

Activité sismique

Ville Distance Mag. Time & Date
Minimum magnitude displayed is 2.5.

Températures des eaux côtières

Lieu Température

Stations

Stations météo à proximité

Emplacement de la station Température Refroidissement éolien Point de rosée Humidité Vent Precip. Alt. Mise à jour Type
                   

Watches & Warnings

There are currently no watches in effect.